sensor_id;sensor_type;location;lat;lon;timestamp;P1;durP1;ratioP1;P2;durP2;ratioP2
68690;SDS011;55675;49.588;8.640;2022-09-09T00:00:38;1.17;;;0.80;;
68690;SDS011;55675;49.588;8.640;2022-09-09T00:03:14;1.20;;;0.80;;
68690;SDS011;55675;49.588;8.640;2022-09-09T00:08:34;1.10;;;0.90;;
68690;SDS011;55675;49.588;8.640;2022-09-09T00:11:10;0.90;;;0.90;;
68690;SDS011;55675;49.588;8.640;2022-09-09T00:13:46;1.60;;;0.77;;
68690;SDS011;55675;49.588;8.640;2022-09-09T00:16:16;0.70;;;0.70;;
68690;SDS011;55675;49.588;8.640;2022-09-09T00:21:45;1.10;;;1.00;;
68690;SDS011;55675;49.588;8.640;2022-09-09T00:24:29;1.90;;;0.80;;
68690;SDS011;55675;49.588;8.640;2022-09-09T00:32:49;3.60;;;1.20;;
68690;SDS011;55675;49.588;8.640;2022-09-09T00:35:24;0.83;;;0.83;;
68690;SDS011;55675;49.588;8.640;2022-09-09T00:38:03;1.07;;;0.90;;
68690;SDS011;55675;49.588;8.640;2022-09-09T00:40:49;1.53;;;1.00;;
68690;SDS011;55675;49.588;8.640;2022-09-09T00:43:25;1.53;;;0.90;;
68690;SDS011;55675;49.588;8.640;2022-09-09T00:45:54;1.00;;;0.90;;
68690;SDS011;55675;49.588;8.640;2022-09-09T00:51:43;1.43;;;1.00;;
68690;SDS011;55675;49.588;8.640;2022-09-09T00:57:07;1.80;;;1.00;;
68690;SDS011;55675;49.588;8.640;2022-09-09T01:02:21;0.90;;;0.90;;
68690;SDS011;55675;49.588;8.640;2022-09-09T01:05:07;0.83;;;0.70;;
68690;SDS011;55675;49.588;8.640;2022-09-09T01:07:44;1.83;;;0.77;;
68690;SDS011;55675;49.588;8.640;2022-09-09T01:10:21;2.17;;;1.00;;
68690;SDS011;55675;49.588;8.640;2022-09-09T01:12:55;0.83;;;0.83;;
68690;SDS011;55675;49.588;8.640;2022-09-09T01:15:27;1.10;;;0.80;;
68690;SDS011;55675;49.588;8.640;2022-09-09T01:18:04;3.10;;;1.00;;
68690;SDS011;55675;49.588;8.640;2022-09-09T01:20:47;1.70;;;1.30;;
68690;SDS011;55675;49.588;8.640;2022-09-09T01:26:04;1.10;;;1.00;;
68690;SDS011;55675;49.588;8.640;2022-09-09T01:28:39;1.80;;;1.03;;
68690;SDS011;55675;49.588;8.640;2022-09-09T01:31:07;1.30;;;0.90;;
68690;SDS011;55675;49.588;8.640;2022-09-09T01:33:36;1.10;;;1.10;;
68690;SDS011;55675;49.588;8.640;2022-09-09T01:36:06;3.13;;;1.17;;
68690;SDS011;55675;49.588;8.640;2022-09-09T01:38:37;2.10;;;1.10;;
68690;SDS011;55675;49.588;8.640;2022-09-09T01:41:03;1.33;;;1.13;;
68690;SDS011;55675;49.588;8.640;2022-09-09T01:43:29;1.90;;;1.10;;
68690;SDS011;55675;49.588;8.640;2022-09-09T01:45:56;2.10;;;0.87;;
68690;SDS011;55675;49.588;8.640;2022-09-09T01:48:25;1.37;;;1.00;;
68690;SDS011;55675;49.588;8.640;2022-09-09T01:50:52;3.03;;;1.10;;
68690;SDS011;55675;49.588;8.640;2022-09-09T01:53:18;3.83;;;1.40;;
68690;SDS011;55675;49.588;8.640;2022-09-09T01:55:52;2.23;;;0.90;;
68690;SDS011;55675;49.588;8.640;2022-09-09T02:01:34;2.73;;;1.10;;
68690;SDS011;55675;49.588;8.640;2022-09-09T02:04:18;1.10;;;1.00;;
68690;SDS011;55675;49.588;8.640;2022-09-09T02:07:15;2.90;;;1.20;;
68690;SDS011;55675;49.588;8.640;2022-09-09T02:15:58;1.37;;;1.27;;
68690;SDS011;55675;49.588;8.640;2022-09-09T02:18:30;1.43;;;1.00;;
68690;SDS011;55675;49.588;8.640;2022-09-09T02:21:18;2.40;;;1.20;;
68690;SDS011;55675;49.588;8.640;2022-09-09T02:23:45;2.20;;;1.20;;
68690;SDS011;55675;49.588;8.640;2022-09-09T02:26:16;2.20;;;1.00;;
68690;SDS011;55675;49.588;8.640;2022-09-09T02:28:46;1.27;;;0.93;;
68690;SDS011;55675;49.588;8.640;2022-09-09T02:31:16;1.13;;;1.07;;
68690;SDS011;55675;49.588;8.640;2022-09-09T02:33:51;1.37;;;1.00;;
68690;SDS011;55675;49.588;8.640;2022-09-09T02:36:23;1.80;;;1.00;;
68690;SDS011;55675;49.588;8.640;2022-09-09T02:38:51;1.87;;;1.00;;
68690;SDS011;55675;49.588;8.640;2022-09-09T02:41:30;3.50;;;1.00;;
68690;SDS011;55675;49.588;8.640;2022-09-09T02:43:58;2.57;;;1.10;;
68690;SDS011;55675;49.588;8.640;2022-09-09T02:46:40;1.27;;;1.00;;
68690;SDS011;55675;49.588;8.640;2022-09-09T02:52:30;2.43;;;1.03;;
68690;SDS011;55675;49.588;8.640;2022-09-09T02:55:07;1.30;;;1.20;;
68690;SDS011;55675;49.588;8.640;2022-09-09T02:57:49;1.23;;;1.00;;
68690;SDS011;55675;49.588;8.640;2022-09-09T03:00:16;2.00;;;1.00;;
68690;SDS011;55675;49.588;8.640;2022-09-09T03:02:49;3.07;;;0.97;;
68690;SDS011;55675;49.588;8.640;2022-09-09T03:05:15;1.03;;;1.00;;
68690;SDS011;55675;49.588;8.640;2022-09-09T03:07:41;1.50;;;1.13;;
68690;SDS011;55675;49.588;8.640;2022-09-09T03:10:06;1.17;;;1.03;;
68690;SDS011;55675;49.588;8.640;2022-09-09T03:12:33;1.60;;;1.30;;
68690;SDS011;55675;49.588;8.640;2022-09-09T03:14:58;1.40;;;1.03;;
68690;SDS011;55675;49.588;8.640;2022-09-09T03:17:24;1.67;;;1.20;;
68690;SDS011;55675;49.588;8.640;2022-09-09T03:19:49;1.57;;;1.20;;
68690;SDS011;55675;49.588;8.640;2022-09-09T03:22:17;1.37;;;1.10;;
68690;SDS011;55675;49.588;8.640;2022-09-09T03:24:42;1.87;;;1.30;;
68690;SDS011;55675;49.588;8.640;2022-09-09T03:27:08;1.07;;;0.90;;
68690;SDS011;55675;49.588;8.640;2022-09-09T03:29:34;1.27;;;1.00;;
68690;SDS011;55675;49.588;8.640;2022-09-09T03:31:59;2.97;;;1.17;;
68690;SDS011;55675;49.588;8.640;2022-09-09T03:34:25;2.20;;;1.10;;
68690;SDS011;55675;49.588;8.640;2022-09-09T03:36:50;2.30;;;1.20;;
68690;SDS011;55675;49.588;8.640;2022-09-09T03:39:16;1.90;;;1.00;;
68690;SDS011;55675;49.588;8.640;2022-09-09T03:41:41;2.33;;;1.00;;
68690;SDS011;55675;49.588;8.640;2022-09-09T03:44:07;1.23;;;0.97;;
68690;SDS011;55675;49.588;8.640;2022-09-09T03:46:32;2.60;;;1.50;;
68690;SDS011;55675;49.588;8.640;2022-09-09T03:48:58;1.57;;;1.20;;
68690;SDS011;55675;49.588;8.640;2022-09-09T03:51:24;2.97;;;1.47;;
68690;SDS011;55675;49.588;8.640;2022-09-09T03:53:49;1.73;;;1.20;;
68690;SDS011;55675;49.588;8.640;2022-09-09T03:56:15;1.70;;;1.17;;
68690;SDS011;55675;49.588;8.640;2022-09-09T03:58:41;2.40;;;1.00;;
68690;SDS011;55675;49.588;8.640;2022-09-09T04:01:07;1.67;;;1.07;;
68690;SDS011;55675;49.588;8.640;2022-09-09T04:03:35;1.93;;;1.00;;
68690;SDS011;55675;49.588;8.640;2022-09-09T04:06:02;0.93;;;0.83;;
68690;SDS011;55675;49.588;8.640;2022-09-09T04:08:29;2.03;;;1.10;;
68690;SDS011;55675;49.588;8.640;2022-09-09T04:10:57;2.17;;;1.00;;
68690;SDS011;55675;49.588;8.640;2022-09-09T04:13:25;1.87;;;1.03;;
68690;SDS011;55675;49.588;8.640;2022-09-09T04:15:52;1.53;;;0.90;;
68690;SDS011;55675;49.588;8.640;2022-09-09T04:18:19;1.63;;;1.00;;
68690;SDS011;55675;49.588;8.640;2022-09-09T04:20:48;3.13;;;1.10;;
68690;SDS011;55675;49.588;8.640;2022-09-09T04:23:15;2.67;;;1.10;;
68690;SDS011;55675;49.588;8.640;2022-09-09T04:25:45;1.53;;;1.00;;
68690;SDS011;55675;49.588;8.640;2022-09-09T04:28:14;4.40;;;1.40;;
68690;SDS011;55675;49.588;8.640;2022-09-09T04:30:41;2.93;;;1.00;;
68690;SDS011;55675;49.588;8.640;2022-09-09T04:33:07;1.33;;;0.80;;
68690;SDS011;55675;49.588;8.640;2022-09-09T04:35:34;1.90;;;1.50;;
68690;SDS011;55675;49.588;8.640;2022-09-09T04:38:00;0.90;;;0.80;;
68690;SDS011;55675;49.588;8.640;2022-09-09T04:40:27;0.70;;;0.70;;
68690;SDS011;55675;49.588;8.640;2022-09-09T04:42:54;2.27;;;1.07;;
68690;SDS011;55675;49.588;8.640;2022-09-09T04:45:20;1.27;;;0.80;;
68690;SDS011;55675;49.588;8.640;2022-09-09T04:47:45;1.13;;;0.60;;
68690;SDS011;55675;49.588;8.640;2022-09-09T04:50:11;0.97;;;0.80;;
68690;SDS011;55675;49.588;8.640;2022-09-09T04:52:37;1.17;;;0.90;;
68690;SDS011;55675;49.588;8.640;2022-09-09T04:55:03;0.80;;;0.80;;
68690;SDS011;55675;49.588;8.640;2022-09-09T04:57:29;2.07;;;0.90;;
68690;SDS011;55675;49.588;8.640;2022-09-09T04:59:56;1.13;;;0.70;;
68690;SDS011;55675;49.588;8.640;2022-09-09T05:02:22;1.07;;;0.63;;
68690;SDS011;55675;49.588;8.640;2022-09-09T05:04:48;1.07;;;0.50;;
68690;SDS011;55675;49.588;8.640;2022-09-09T05:07:14;0.87;;;0.63;;
68690;SDS011;55675;49.588;8.640;2022-09-09T05:09:40;0.77;;;0.60;;
68690;SDS011;55675;49.588;8.640;2022-09-09T05:12:06;0.73;;;0.70;;
68690;SDS011;55675;49.588;8.640;2022-09-09T05:14:32;1.13;;;0.80;;
68690;SDS011;55675;49.588;8.640;2022-09-09T05:16:58;1.63;;;0.70;;
68690;SDS011;55675;49.588;8.640;2022-09-09T05:19:24;0.90;;;0.80;;
68690;SDS011;55675;49.588;8.640;2022-09-09T05:21:49;1.17;;;0.80;;
68690;SDS011;55675;49.588;8.640;2022-09-09T05:24:15;0.67;;;0.67;;
68690;SDS011;55675;49.588;8.640;2022-09-09T05:26:41;1.20;;;0.70;;
68690;SDS011;55675;49.588;8.640;2022-09-09T05:29:08;1.83;;;0.83;;
68690;SDS011;55675;49.588;8.640;2022-09-09T05:31:33;0.60;;;0.60;;
68690;SDS011;55675;49.588;8.640;2022-09-09T05:33:59;0.97;;;0.60;;
68690;SDS011;55675;49.588;8.640;2022-09-09T05:36:25;1.03;;;0.53;;
68690;SDS011;55675;49.588;8.640;2022-09-09T05:38:50;1.90;;;0.60;;
68690;SDS011;55675;49.588;8.640;2022-09-09T05:41:18;1.53;;;0.90;;
68690;SDS011;55675;49.588;8.640;2022-09-09T05:43:45;0.60;;;0.60;;
68690;SDS011;55675;49.588;8.640;2022-09-09T05:46:12;2.03;;;0.90;;
68690;SDS011;55675;49.588;8.640;2022-09-09T05:48:41;1.60;;;0.80;;
68690;SDS011;55675;49.588;8.640;2022-09-09T05:51:09;2.73;;;0.80;;
68690;SDS011;55675;49.588;8.640;2022-09-09T05:53:40;0.70;;;0.70;;
68690;SDS011;55675;49.588;8.640;2022-09-09T05:56:08;1.13;;;0.57;;
68690;SDS011;55675;49.588;8.640;2022-09-09T05:58:39;1.40;;;0.80;;
68690;SDS011;55675;49.588;8.640;2022-09-09T06:01:05;1.80;;;0.60;;
68690;SDS011;55675;49.588;8.640;2022-09-09T06:03:36;1.70;;;0.87;;
68690;SDS011;55675;49.588;8.640;2022-09-09T06:06:04;2.50;;;0.80;;
68690;SDS011;55675;49.588;8.640;2022-09-09T06:08:31;0.80;;;0.80;;
68690;SDS011;55675;49.588;8.640;2022-09-09T06:11:01;0.93;;;0.60;;
68690;SDS011;55675;49.588;8.640;2022-09-09T06:13:34;1.33;;;0.70;;
68690;SDS011;55675;49.588;8.640;2022-09-09T06:16:02;2.40;;;1.00;;
68690;SDS011;55675;49.588;8.640;2022-09-09T06:18:28;1.63;;;0.50;;
68690;SDS011;55675;49.588;8.640;2022-09-09T06:20:58;1.37;;;0.87;;
68690;SDS011;55675;49.588;8.640;2022-09-09T06:23:26;1.60;;;0.77;;
68690;SDS011;55675;49.588;8.640;2022-09-09T06:28:45;0.80;;;0.70;;
68690;SDS011;55675;49.588;8.640;2022-09-09T06:31:13;1.27;;;0.73;;
68690;SDS011;55675;49.588;8.640;2022-09-09T06:33:42;2.20;;;0.80;;
68690;SDS011;55675;49.588;8.640;2022-09-09T06:36:15;0.97;;;0.63;;
68690;SDS011;55675;49.588;8.640;2022-09-09T06:38:43;1.57;;;0.77;;
68690;SDS011;55675;49.588;8.640;2022-09-09T06:41:10;0.90;;;0.60;;
68690;SDS011;55675;49.588;8.640;2022-09-09T06:43:37;1.70;;;0.80;;
68690;SDS011;55675;49.588;8.640;2022-09-09T06:46:07;0.80;;;0.50;;
68690;SDS011;55675;49.588;8.640;2022-09-09T06:48:35;1.20;;;0.60;;
68690;SDS011;55675;49.588;8.640;2022-09-09T06:53:33;1.27;;;0.60;;
68690;SDS011;55675;49.588;8.640;2022-09-09T06:56:01;1.47;;;0.83;;
68690;SDS011;55675;49.588;8.640;2022-09-09T06:58:27;1.10;;;0.77;;
68690;SDS011;55675;49.588;8.640;2022-09-09T07:01:01;1.60;;;0.73;;
68690;SDS011;55675;49.588;8.640;2022-09-09T07:03:30;1.97;;;0.50;;
68690;SDS011;55675;49.588;8.640;2022-09-09T07:05:56;1.57;;;0.80;;
68690;SDS011;55675;49.588;8.640;2022-09-09T07:08:22;2.13;;;0.93;;
68690;SDS011;55675;49.588;8.640;2022-09-09T07:10:49;0.90;;;0.90;;
68690;SDS011;55675;49.588;8.640;2022-09-09T07:13:16;1.03;;;0.93;;
68690;SDS011;55675;49.588;8.640;2022-09-09T07:15:42;0.60;;;0.60;;
68690;SDS011;55675;49.588;8.640;2022-09-09T07:18:07;0.60;;;0.57;;
68690;SDS011;55675;49.588;8.640;2022-09-09T07:20:35;2.33;;;0.90;;
68690;SDS011;55675;49.588;8.640;2022-09-09T07:23:00;1.20;;;0.90;;
68690;SDS011;55675;49.588;8.640;2022-09-09T07:25:26;0.97;;;0.80;;
68690;SDS011;55675;49.588;8.640;2022-09-09T07:27:53;1.47;;;0.70;;
68690;SDS011;55675;49.588;8.640;2022-09-09T07:30:19;1.13;;;0.80;;
68690;SDS011;55675;49.588;8.640;2022-09-09T07:32:45;2.63;;;0.73;;
68690;SDS011;55675;49.588;8.640;2022-09-09T07:35:10;1.77;;;0.80;;
68690;SDS011;55675;49.588;8.640;2022-09-09T07:37:37;1.30;;;0.67;;
68690;SDS011;55675;49.588;8.640;2022-09-09T07:40:03;3.70;;;1.03;;
68690;SDS011;55675;49.588;8.640;2022-09-09T07:42:30;0.93;;;0.70;;
68690;SDS011;55675;49.588;8.640;2022-09-09T07:44:56;1.43;;;0.83;;
68690;SDS011;55675;49.588;8.640;2022-09-09T07:47:21;2.10;;;0.90;;
68690;SDS011;55675;49.588;8.640;2022-09-09T07:49:49;1.93;;;1.20;;
68690;SDS011;55675;49.588;8.640;2022-09-09T07:52:15;1.30;;;0.70;;
68690;SDS011;55675;49.588;8.640;2022-09-09T07:54:41;1.53;;;0.90;;
68690;SDS011;55675;49.588;8.640;2022-09-09T07:57:07;1.33;;;0.67;;
68690;SDS011;55675;49.588;8.640;2022-09-09T07:59:33;1.37;;;0.67;;
68690;SDS011;55675;49.588;8.640;2022-09-09T08:01:58;2.10;;;1.00;;
68690;SDS011;55675;49.588;8.640;2022-09-09T08:04:24;2.07;;;0.90;;
68690;SDS011;55675;49.588;8.640;2022-09-09T08:06:52;1.57;;;0.80;;
68690;SDS011;55675;49.588;8.640;2022-09-09T08:09:20;1.60;;;1.30;;
68690;SDS011;55675;49.588;8.640;2022-09-09T08:11:47;2.90;;;1.13;;
68690;SDS011;55675;49.588;8.640;2022-09-09T08:14:12;2.20;;;1.30;;
68690;SDS011;55675;49.588;8.640;2022-09-09T08:16:40;2.57;;;0.83;;
68690;SDS011;55675;49.588;8.640;2022-09-09T08:19:07;3.03;;;1.17;;
68690;SDS011;55675;49.588;8.640;2022-09-09T08:21:34;1.50;;;0.73;;
68690;SDS011;55675;49.588;8.640;2022-09-09T08:24:02;1.80;;;0.90;;
68690;SDS011;55675;49.588;8.640;2022-09-09T08:26:34;1.93;;;0.80;;
68690;SDS011;55675;49.588;8.640;2022-09-09T08:29:02;3.63;;;0.90;;
68690;SDS011;55675;49.588;8.640;2022-09-09T08:31:33;7.47;;;0.97;;
68690;SDS011;55675;49.588;8.640;2022-09-09T08:34:00;5.90;;;1.20;;
68690;SDS011;55675;49.588;8.640;2022-09-09T08:36:28;2.03;;;0.90;;
68690;SDS011;55675;49.588;8.640;2022-09-09T08:38:56;3.40;;;0.80;;
68690;SDS011;55675;49.588;8.640;2022-09-09T08:50:25;2.97;;;1.07;;
68690;SDS011;55675;49.588;8.640;2022-09-09T08:53:08;1.60;;;1.00;;
68690;SDS011;55675;49.588;8.640;2022-09-09T08:55:41;1.93;;;0.90;;
68690;SDS011;55675;49.588;8.640;2022-09-09T08:58:19;3.30;;;1.03;;
68690;SDS011;55675;49.588;8.640;2022-09-09T09:06:22;2.67;;;0.90;;
68690;SDS011;55675;49.588;8.640;2022-09-09T09:11:53;0.93;;;0.50;;
68690;SDS011;55675;49.588;8.640;2022-09-09T09:14:21;1.63;;;0.70;;
68690;SDS011;55675;49.588;8.640;2022-09-09T09:16:53;2.20;;;0.87;;
68690;SDS011;55675;49.588;8.640;2022-09-09T09:19:22;2.97;;;0.77;;
68690;SDS011;55675;49.588;8.640;2022-09-09T09:21:57;1.70;;;0.90;;
68690;SDS011;55675;49.588;8.640;2022-09-09T09:27:33;1.87;;;1.00;;
68690;SDS011;55675;49.588;8.640;2022-09-09T09:30:05;2.00;;;0.80;;
68690;SDS011;55675;49.588;8.640;2022-09-09T09:32:38;2.40;;;0.80;;
68690;SDS011;55675;49.588;8.640;2022-09-09T09:35:11;1.67;;;0.90;;
68690;SDS011;55675;49.588;8.640;2022-09-09T09:37:39;1.93;;;0.90;;
68690;SDS011;55675;49.588;8.640;2022-09-09T09:40:13;3.10;;;0.93;;
68690;SDS011;55675;49.588;8.640;2022-09-09T09:43:16;2.13;;;0.70;;
68690;SDS011;55675;49.588;8.640;2022-09-09T09:45:43;2.27;;;0.80;;
68690;SDS011;55675;49.588;8.640;2022-09-09T09:48:13;1.37;;;0.83;;
68690;SDS011;55675;49.588;8.640;2022-09-09T09:50:51;1.37;;;0.70;;
68690;SDS011;55675;49.588;8.640;2022-09-09T09:53:32;1.90;;;0.83;;
68690;SDS011;55675;49.588;8.640;2022-09-09T09:56:00;2.10;;;0.70;;
68690;SDS011;55675;49.588;8.640;2022-09-09T09:58:30;2.20;;;0.87;;
68690;SDS011;55675;49.588;8.640;2022-09-09T10:00:59;3.00;;;1.10;;
68690;SDS011;55675;49.588;8.640;2022-09-09T10:03:27;3.07;;;0.70;;
68690;SDS011;55675;49.588;8.640;2022-09-09T10:05:54;2.63;;;0.70;;
68690;SDS011;55675;49.588;8.640;2022-09-09T10:08:21;1.50;;;0.90;;
68690;SDS011;55675;49.588;8.640;2022-09-09T10:10:51;2.67;;;0.97;;
68690;SDS011;55675;49.588;8.640;2022-09-09T10:13:46;3.70;;;0.80;;
68690;SDS011;55675;49.588;8.640;2022-09-09T10:19:18;2.13;;;0.90;;
68690;SDS011;55675;49.588;8.640;2022-09-09T10:21:57;1.57;;;1.37;;
68690;SDS011;55675;49.588;8.640;2022-09-09T10:24:39;3.17;;;1.10;;
68690;SDS011;55675;49.588;8.640;2022-09-09T10:30:18;2.13;;;0.60;;
68690;SDS011;55675;49.588;8.640;2022-09-09T10:32:46;1.87;;;0.70;;
68690;SDS011;55675;49.588;8.640;2022-09-09T10:35:31;2.17;;;0.60;;
68690;SDS011;55675;49.588;8.640;2022-09-09T10:38:06;2.97;;;0.80;;
68690;SDS011;55675;49.588;8.640;2022-09-09T10:46:11;1.13;;;0.70;;
68690;SDS011;55675;49.588;8.640;2022-09-09T10:51:45;3.37;;;0.93;;
68690;SDS011;55675;49.588;8.640;2022-09-09T10:54:21;0.77;;;0.60;;
68690;SDS011;55675;49.588;8.640;2022-09-09T10:57:25;1.63;;;0.90;;
68690;SDS011;55675;49.588;8.640;2022-09-09T11:00:01;2.73;;;0.93;;
68690;SDS011;55675;49.588;8.640;2022-09-09T11:02:32;4.50;;;1.10;;
68690;SDS011;55675;49.588;8.640;2022-09-09T11:07:51;6.20;;;1.40;;
68690;SDS011;55675;49.588;8.640;2022-09-09T11:10:40;2.90;;;0.80;;
68690;SDS011;55675;49.588;8.640;2022-09-09T11:13:14;2.57;;;1.03;;
68690;SDS011;55675;49.588;8.640;2022-09-09T11:15:45;2.73;;;0.90;;
68690;SDS011;55675;49.588;8.640;2022-09-09T11:18:19;2.23;;;0.90;;
68690;SDS011;55675;49.588;8.640;2022-09-09T11:20:48;3.77;;;1.00;;
68690;SDS011;55675;49.588;8.640;2022-09-09T11:23:38;0.80;;;0.80;;
68690;SDS011;55675;49.588;8.640;2022-09-09T11:26:08;1.50;;;1.00;;
68690;SDS011;55675;49.588;8.640;2022-09-09T11:28:46;3.67;;;1.00;;
68690;SDS011;55675;49.588;8.640;2022-09-09T11:40:32;2.13;;;0.80;;
68690;SDS011;55675;49.588;8.640;2022-09-09T11:43:05;2.90;;;0.80;;
68690;SDS011;55675;49.588;8.640;2022-09-09T11:45:39;4.77;;;1.10;;
68690;SDS011;55675;49.588;8.640;2022-09-09T11:48:23;3.90;;;0.93;;
68690;SDS011;55675;49.588;8.640;2022-09-09T11:54:02;1.10;;;0.50;;
68690;SDS011;55675;49.588;8.640;2022-09-09T11:56:57;2.13;;;0.90;;
68690;SDS011;55675;49.588;8.640;2022-09-09T11:59:24;7.10;;;1.00;;
68690;SDS011;55675;49.588;8.640;2022-09-09T12:01:55;0.80;;;0.60;;
68690;SDS011;55675;49.588;8.640;2022-09-09T12:07:30;0.90;;;0.40;;
68690;SDS011;55675;49.588;8.640;2022-09-09T12:12:47;1.43;;;0.80;;
68690;SDS011;55675;49.588;8.640;2022-09-09T12:17:41;2.43;;;0.73;;
68690;SDS011;55675;49.588;8.640;2022-09-09T12:20:20;2.27;;;0.67;;
68690;SDS011;55675;49.588;8.640;2022-09-09T12:26:23;2.90;;;0.70;;
68690;SDS011;55675;49.588;8.640;2022-09-09T12:32:00;6.33;;;0.77;;
68690;SDS011;55675;49.588;8.640;2022-09-09T12:34:40;2.40;;;0.90;;
68690;SDS011;55675;49.588;8.640;2022-09-09T12:37:16;2.00;;;0.90;;
68690;SDS011;55675;49.588;8.640;2022-09-09T12:39:56;3.50;;;0.70;;
68690;SDS011;55675;49.588;8.640;2022-09-09T12:42:24;0.93;;;0.57;;
68690;SDS011;55675;49.588;8.640;2022-09-09T12:44:51;2.77;;;0.60;;
68690;SDS011;55675;49.588;8.640;2022-09-09T12:47:26;1.43;;;0.47;;
68690;SDS011;55675;49.588;8.640;2022-09-09T12:50:01;0.60;;;0.40;;
68690;SDS011;55675;49.588;8.640;2022-09-09T12:52:32;1.13;;;0.37;;
68690;SDS011;55675;49.588;8.640;2022-09-09T12:55:02;1.13;;;0.50;;
68690;SDS011;55675;49.588;8.640;2022-09-09T12:57:32;1.57;;;0.50;;
68690;SDS011;55675;49.588;8.640;2022-09-09T13:00:12;1.57;;;0.60;;
68690;SDS011;55675;49.588;8.640;2022-09-09T13:05:20;1.13;;;0.50;;
68690;SDS011;55675;49.588;8.640;2022-09-09T13:07:48;0.70;;;0.40;;
68690;SDS011;55675;49.588;8.640;2022-09-09T13:10:15;4.30;;;0.67;;
68690;SDS011;55675;49.588;8.640;2022-09-09T13:12:47;1.07;;;0.60;;
68690;SDS011;55675;49.588;8.640;2022-09-09T13:15:16;1.47;;;0.70;;
68690;SDS011;55675;49.588;8.640;2022-09-09T13:17:57;1.50;;;0.77;;
68690;SDS011;55675;49.588;8.640;2022-09-09T13:20:27;1.90;;;0.80;;
68690;SDS011;55675;49.588;8.640;2022-09-09T13:22:53;1.00;;;0.63;;
68690;SDS011;55675;49.588;8.640;2022-09-09T13:27:53;2.33;;;0.73;;
68690;SDS011;55675;49.588;8.640;2022-09-09T13:33:01;6.57;;;1.13;;
68690;SDS011;55675;49.588;8.640;2022-09-09T13:35:32;2.77;;;1.03;;
68690;SDS011;55675;49.588;8.640;2022-09-09T13:37:58;2.47;;;1.00;;
68690;SDS011;55675;49.588;8.640;2022-09-09T13:40:32;3.13;;;1.20;;
68690;SDS011;55675;49.588;8.640;2022-09-09T13:42:57;2.73;;;1.10;;
68690;SDS011;55675;49.588;8.640;2022-09-09T13:45:24;1.77;;;0.90;;
68690;SDS011;55675;49.588;8.640;2022-09-09T13:47:54;3.00;;;1.37;;
68690;SDS011;55675;49.588;8.640;2022-09-09T13:50:21;1.47;;;1.00;;
68690;SDS011;55675;49.588;8.640;2022-09-09T13:52:51;4.03;;;1.47;;
68690;SDS011;55675;49.588;8.640;2022-09-09T13:55:19;1.63;;;0.90;;
68690;SDS011;55675;49.588;8.640;2022-09-09T13:57:50;2.63;;;1.00;;
68690;SDS011;55675;49.588;8.640;2022-09-09T14:00:17;2.37;;;1.00;;
68690;SDS011;55675;49.588;8.640;2022-09-09T14:02:43;2.67;;;1.00;;
68690;SDS011;55675;49.588;8.640;2022-09-09T14:05:09;3.17;;;0.70;;
68690;SDS011;55675;49.588;8.640;2022-09-09T14:07:36;1.67;;;1.10;;
68690;SDS011;55675;49.588;8.640;2022-09-09T14:10:03;2.23;;;0.70;;
68690;SDS011;55675;49.588;8.640;2022-09-09T14:12:29;0.77;;;0.70;;
68690;SDS011;55675;49.588;8.640;2022-09-09T14:14:55;1.97;;;0.77;;
68690;SDS011;55675;49.588;8.640;2022-09-09T14:17:20;1.60;;;0.80;;
68690;SDS011;55675;49.588;8.640;2022-09-09T14:19:47;1.40;;;0.80;;
68690;SDS011;55675;49.588;8.640;2022-09-09T14:22:13;1.65;;;0.60;;
68690;SDS011;55675;49.588;8.640;2022-09-09T14:24:39;0.75;;;0.60;;
68690;SDS011;55675;49.588;8.640;2022-09-09T14:27:04;1.40;;;0.75;;
68690;SDS011;55675;49.588;8.640;2022-09-09T14:29:30;1.80;;;0.63;;
68690;SDS011;55675;49.588;8.640;2022-09-09T14:31:56;1.20;;;0.65;;
68690;SDS011;55675;49.588;8.640;2022-09-09T14:34:21;0.63;;;0.60;;
68690;SDS011;55675;49.588;8.640;2022-09-09T14:36:47;0.60;;;0.50;;
68690;SDS011;55675;49.588;8.640;2022-09-09T14:39:12;1.77;;;0.70;;
68690;SDS011;55675;49.588;8.640;2022-09-09T14:41:38;1.05;;;0.60;;
68690;SDS011;55675;49.588;8.640;2022-09-09T14:44:03;2.42;;;0.88;;
68690;SDS011;55675;49.588;8.640;2022-09-09T14:46:29;3.42;;;0.68;;
68690;SDS011;55675;49.588;8.640;2022-09-09T14:48:54;0.95;;;0.68;;
68690;SDS011;55675;49.588;8.640;2022-09-09T14:51:22;1.23;;;0.52;;
68690;SDS011;55675;49.588;8.640;2022-09-09T14:53:52;1.05;;;0.57;;
68690;SDS011;55675;49.588;8.640;2022-09-09T14:56:19;0.80;;;0.55;;
68690;SDS011;55675;49.588;8.640;2022-09-09T14:58:47;0.43;;;0.28;;
68690;SDS011;55675;49.588;8.640;2022-09-09T15:01:15;0.63;;;0.43;;
68690;SDS011;55675;49.588;8.640;2022-09-09T15:03:44;0.82;;;0.40;;
68690;SDS011;55675;49.588;8.640;2022-09-09T15:06:17;1.30;;;0.40;;
68690;SDS011;55675;49.588;8.640;2022-09-09T15:08:44;1.27;;;0.57;;
68690;SDS011;55675;49.588;8.640;2022-09-09T15:11:11;1.63;;;0.50;;
68690;SDS011;55675;49.588;8.640;2022-09-09T15:13:38;0.70;;;0.50;;
68690;SDS011;55675;49.588;8.640;2022-09-09T15:16:05;2.53;;;0.40;;
68690;SDS011;55675;49.588;8.640;2022-09-09T15:18:33;0.87;;;0.50;;
68690;SDS011;55675;49.588;8.640;2022-09-09T15:21:01;0.60;;;0.43;;
68690;SDS011;55675;49.588;8.640;2022-09-09T15:23:33;0.60;;;0.47;;
68690;SDS011;55675;49.588;8.640;2022-09-09T15:25:59;0.30;;;0.30;;
68690;SDS011;55675;49.588;8.640;2022-09-09T15:28:25;1.17;;;0.50;;
68690;SDS011;55675;49.588;8.640;2022-09-09T15:30:51;0.70;;;0.40;;
68690;SDS011;55675;49.588;8.640;2022-09-09T15:33:18;0.70;;;0.60;;
68690;SDS011;55675;49.588;8.640;2022-09-09T15:35:45;1.17;;;0.50;;
68690;SDS011;55675;49.588;8.640;2022-09-09T15:38:10;0.57;;;0.57;;
68690;SDS011;55675;49.588;8.640;2022-09-09T15:40:38;1.30;;;0.50;;
68690;SDS011;55675;49.588;8.640;2022-09-09T15:43:06;0.80;;;0.37;;
68690;SDS011;55675;49.588;8.640;2022-09-09T15:45:33;0.73;;;0.53;;
68690;SDS011;55675;49.588;8.640;2022-09-09T15:48:02;1.40;;;0.40;;
68690;SDS011;55675;49.588;8.640;2022-09-09T15:50:28;1.23;;;0.43;;
68690;SDS011;55675;49.588;8.640;2022-09-09T15:52:57;2.00;;;0.63;;
68690;SDS011;55675;49.588;8.640;2022-09-09T15:55:23;1.50;;;0.57;;
68690;SDS011;55675;49.588;8.640;2022-09-09T15:57:49;2.97;;;0.77;;
68690;SDS011;55675;49.588;8.640;2022-09-09T16:00:15;0.50;;;0.50;;
68690;SDS011;55675;49.588;8.640;2022-09-09T16:02:40;1.13;;;0.70;;
68690;SDS011;55675;49.588;8.640;2022-09-09T16:05:06;1.10;;;0.60;;
68690;SDS011;55675;49.588;8.640;2022-09-09T16:07:32;0.73;;;0.40;;
68690;SDS011;55675;49.588;8.640;2022-09-09T16:09:58;2.40;;;0.50;;
68690;SDS011;55675;49.588;8.640;2022-09-09T16:12:24;1.70;;;0.77;;
68690;SDS011;55675;49.588;8.640;2022-09-09T16:14:51;0.73;;;0.50;;
68690;SDS011;55675;49.588;8.640;2022-09-09T16:17:16;1.03;;;0.60;;
68690;SDS011;55675;49.588;8.640;2022-09-09T16:19:43;1.17;;;0.47;;
68690;SDS011;55675;49.588;8.640;2022-09-09T16:22:10;2.00;;;0.50;;
68690;SDS011;55675;49.588;8.640;2022-09-09T16:24:36;1.00;;;0.73;;
68690;SDS011;55675;49.588;8.640;2022-09-09T16:27:02;0.77;;;0.60;;
68690;SDS011;55675;49.588;8.640;2022-09-09T16:29:27;0.50;;;0.50;;
68690;SDS011;55675;49.588;8.640;2022-09-09T16:31:53;0.90;;;0.63;;
68690;SDS011;55675;49.588;8.640;2022-09-09T16:34:19;1.17;;;0.70;;
68690;SDS011;55675;49.588;8.640;2022-09-09T16:36:46;1.03;;;0.60;;
68690;SDS011;55675;49.588;8.640;2022-09-09T16:39:13;0.67;;;0.50;;
68690;SDS011;55675;49.588;8.640;2022-09-09T16:41:41;2.10;;;0.80;;
68690;SDS011;55675;49.588;8.640;2022-09-09T16:44:08;1.10;;;0.67;;
68690;SDS011;55675;49.588;8.640;2022-09-09T16:46:39;1.13;;;0.53;;
68690;SDS011;55675;49.588;8.640;2022-09-09T16:49:07;0.60;;;0.60;;
68690;SDS011;55675;49.588;8.640;2022-09-09T16:51:38;0.60;;;0.60;;
68690;SDS011;55675;49.588;8.640;2022-09-09T16:54:06;0.83;;;0.60;;
68690;SDS011;55675;49.588;8.640;2022-09-09T16:56:34;0.50;;;0.50;;